createdAt,value
2018-08-29T00:01:04.014Z,10.77
2018-08-29T00:04:08.563Z,10.40
2018-08-29T00:07:17.421Z,10.47
2018-08-29T00:10:21.162Z,12.63
2018-08-29T00:13:24.772Z,13.00
2018-08-29T00:16:28.507Z,10.50
2018-08-29T00:19:32.162Z,14.97
2018-08-29T00:22:35.742Z,12.03
2018-08-29T00:25:39.425Z,17.40
2018-08-29T00:28:43.091Z,14.10
2018-08-29T00:31:46.721Z,13.93
2018-08-29T00:34:50.433Z,12.13
2018-08-29T00:37:54.016Z,17.83
2018-08-29T00:40:57.705Z,12.70
2018-08-29T00:44:01.441Z,9.80
2018-08-29T00:47:05.220Z,13.30
2018-08-29T00:50:08.863Z,11.33
2018-08-29T00:53:12.500Z,13.10
2018-08-29T00:56:16.266Z,9.87
2018-08-29T00:59:19.997Z,11.10
2018-08-29T01:02:23.551Z,15.27
2018-08-29T01:05:27.190Z,16.97
2018-08-29T01:08:30.856Z,11.87
2018-08-29T01:11:34.738Z,10.67
2018-08-29T01:14:38.416Z,12.60
2018-08-29T01:17:42.126Z,14.47
2018-08-29T01:20:45.823Z,12.73
2018-08-29T01:23:49.470Z,16.03
2018-08-29T01:26:53.186Z,9.30
2018-08-29T01:29:56.867Z,11.53
2018-08-29T01:33:00.563Z,13.57
2018-08-29T01:36:04.227Z,10.27
2018-08-29T01:39:09.717Z,17.87
2018-08-29T01:42:13.333Z,12.93
2018-08-29T01:45:16.924Z,12.33
2018-08-29T01:48:21.561Z,12.63
2018-08-29T01:51:25.117Z,12.37
2018-08-29T01:54:28.756Z,9.87
2018-08-29T01:57:32.609Z,11.73
2018-08-29T02:00:36.301Z,10.90
2018-08-29T02:03:40.044Z,13.63
2018-08-29T02:06:43.743Z,12.10
2018-08-29T02:09:47.526Z,10.73
2018-08-29T02:12:51.196Z,11.57
2018-08-29T02:15:54.806Z,13.07
2018-08-29T02:18:58.410Z,11.43
2018-08-29T02:22:02.537Z,12.23
2018-08-29T02:25:07.123Z,14.10
2018-08-29T02:28:10.743Z,13.13
2018-08-29T02:31:14.465Z,11.90
2018-08-29T02:34:18.206Z,14.33
2018-08-29T02:37:21.846Z,14.20
2018-08-29T02:40:25.496Z,18.40
2018-08-29T02:43:30.178Z,14.93
2018-08-29T02:46:33.868Z,10.70
2018-08-29T02:49:37.573Z,14.40
2018-08-29T02:52:41.352Z,15.83
2018-08-29T02:55:44.933Z,15.30
2018-08-29T02:58:48.583Z,18.17
2018-08-29T03:01:52.243Z,15.07
2018-08-29T03:04:56.676Z,12.17
2018-08-29T03:08:00.466Z,17.53
2018-08-29T03:11:04.112Z,17.60
2018-08-29T03:14:07.729Z,11.23
2018-08-29T03:17:11.538Z,14.63
2018-08-29T03:20:15.213Z,16.33
2018-08-29T03:23:18.828Z,12.10
2018-08-29T03:26:22.641Z,14.60
2018-08-29T03:29:26.227Z,17.27
2018-08-29T03:32:29.969Z,14.47
2018-08-29T03:35:34.277Z,14.70
2018-08-29T03:38:37.988Z,17.80
2018-08-29T03:41:41.623Z,13.73
2018-08-29T03:44:45.289Z,16.80
2018-08-29T03:47:49.040Z,13.27
2018-08-29T03:50:52.796Z,14.53
2018-08-29T03:53:56.457Z,21.73
2018-08-29T03:57:00.004Z,11.90
2018-08-29T04:00:03.709Z,13.37
2018-08-29T04:03:08.309Z,15.93
2018-08-29T04:06:12.103Z,15.00
2018-08-29T04:09:15.792Z,14.80
2018-08-29T04:12:19.485Z,19.07
2018-08-29T04:15:23.214Z,18.40
2018-08-29T04:18:26.952Z,15.13
2018-08-29T04:21:30.617Z,17.00
2018-08-29T04:24:34.376Z,19.67
2018-08-29T04:27:38.160Z,16.83
2018-08-29T04:30:41.883Z,17.03
2018-08-29T04:33:45.735Z,13.90
2018-08-29T04:36:49.490Z,15.57
2018-08-29T04:39:53.129Z,18.83
2018-08-29T04:42:56.784Z,18.10
2018-08-29T04:46:00.470Z,12.50
2018-08-29T04:49:04.093Z,17.60
2018-08-29T04:52:07.962Z,16.90
2018-08-29T04:55:11.659Z,17.57
2018-08-29T04:58:15.294Z,13.50
2018-08-29T05:01:19.036Z,14.37
2018-08-29T05:04:22.848Z,16.93
2018-08-29T05:07:26.720Z,15.10
2018-08-29T05:10:30.399Z,13.80
2018-08-29T05:13:34.050Z,21.03
2018-08-29T05:16:39.469Z,16.50
2018-08-29T05:19:43.080Z,19.10
2018-08-29T05:22:46.666Z,13.90
2018-08-29T05:25:50.404Z,14.27
2018-08-29T05:28:54.030Z,18.03
2018-08-29T05:31:57.880Z,16.00
2018-08-29T05:35:01.640Z,17.50
2018-08-29T05:38:05.268Z,15.40
2018-08-29T05:41:09.016Z,17.70
2018-08-29T05:44:12.899Z,12.97
2018-08-29T05:47:16.669Z,14.27
2018-08-29T05:50:20.219Z,15.20
2018-08-29T05:53:23.998Z,18.27
2018-08-29T05:56:27.650Z,18.40
2018-08-29T05:59:31.315Z,13.47
2018-08-29T06:02:34.952Z,16.33
2018-08-29T06:05:38.683Z,15.67
2018-08-29T06:08:42.335Z,15.47
2018-08-29T06:11:45.953Z,14.00
2018-08-29T06:14:49.625Z,12.90
2018-08-29T06:17:53.269Z,14.40
2018-08-29T06:20:57.008Z,15.60
2018-08-29T06:24:00.673Z,16.20
2018-08-29T06:27:04.341Z,13.03
2018-08-29T06:30:08.116Z,12.53
2018-08-29T06:33:11.850Z,12.53
2018-08-29T06:36:15.564Z,19.03
2018-08-29T06:39:19.182Z,13.70
2018-08-29T06:42:22.900Z,12.90
2018-08-29T06:45:26.615Z,15.33
2018-08-29T06:48:30.289Z,15.20
2018-08-29T06:51:34.210Z,15.47
2018-08-29T06:54:37.968Z,15.00
2018-08-29T06:57:41.610Z,16.77
2018-08-29T07:00:45.355Z,13.80
2018-08-29T07:03:48.959Z,16.80
2018-08-29T07:06:52.730Z,12.10
2018-08-29T07:09:56.367Z,16.37
2018-08-29T07:13:00.081Z,13.77
2018-08-29T07:16:03.831Z,15.63
2018-08-29T07:19:08.773Z,13.97
2018-08-29T07:22:12.575Z,22.03
2018-08-29T07:25:16.907Z,12.30
2018-08-29T07:28:20.701Z,14.33
2018-08-29T07:31:24.635Z,16.10
2018-08-29T07:34:28.405Z,11.80
2018-08-29T07:37:32.147Z,12.83
2018-08-29T07:40:35.846Z,13.53
2018-08-29T07:43:39.469Z,17.77
2018-08-29T07:46:43.214Z,13.13
2018-08-29T07:49:46.944Z,14.10
2018-08-29T07:52:50.561Z,13.07
2018-08-29T07:55:54.254Z,20.83
2018-08-29T07:58:57.940Z,19.70
2018-08-29T08:02:01.620Z,14.50
2018-08-29T08:05:05.358Z,15.83
2018-08-29T08:08:09.133Z,17.30
2018-08-29T08:11:12.734Z,16.93
2018-08-29T08:14:16.367Z,15.70
2018-08-29T08:17:19.979Z,13.93
2018-08-29T08:20:23.636Z,13.63
2018-08-29T08:23:27.374Z,15.83
2018-08-29T08:26:31.070Z,11.97
2018-08-29T08:29:34.716Z,17.90
2018-08-29T08:32:38.692Z,14.53
2018-08-29T08:35:42.445Z,14.53
2018-08-29T08:38:46.136Z,12.80
2018-08-29T08:41:49.943Z,17.80
2018-08-29T08:44:53.776Z,15.53
2018-08-29T08:47:57.478Z,13.27
2018-08-29T08:51:01.435Z,16.37
2018-08-29T08:54:06.141Z,13.70
2018-08-29T08:57:09.813Z,15.33
2018-08-29T09:00:13.529Z,18.57
2018-08-29T09:03:17.282Z,14.53
2018-08-29T09:06:21.166Z,19.33
2018-08-29T09:09:24.841Z,17.43
2018-08-29T09:12:28.528Z,14.23
2018-08-29T09:15:32.329Z,14.40
2018-08-29T09:18:36.031Z,18.80
2018-08-29T09:21:39.816Z,19.50
2018-08-29T09:24:43.418Z,19.63
2018-08-29T09:27:47.132Z,14.90
2018-08-29T09:30:51.844Z,15.77
2018-08-29T09:33:55.481Z,13.17
2018-08-29T09:36:59.081Z,19.30
2018-08-29T09:40:02.910Z,16.43
2018-08-29T09:43:06.605Z,14.73
2018-08-29T09:46:10.387Z,11.63
2018-08-29T09:49:14.130Z,13.13
2018-08-29T09:52:17.790Z,13.70
2018-08-29T09:55:21.480Z,15.63
2018-08-29T09:58:25.137Z,15.70
2018-08-29T10:01:34.171Z,13.20
2018-08-29T10:04:38.667Z,13.10
2018-08-29T10:07:42.354Z,10.50
2018-08-29T10:10:46.020Z,19.37
2018-08-29T10:13:49.677Z,13.20
2018-08-29T10:16:53.539Z,16.33
2018-08-29T10:19:58.386Z,15.90
2018-08-29T10:23:02.081Z,16.40
2018-08-29T10:26:05.880Z,15.67
2018-08-29T10:29:10.337Z,15.47
2018-08-29T10:32:14.005Z,12.20
2018-08-29T10:35:17.761Z,13.60
2018-08-29T10:38:22.138Z,18.80
2018-08-29T10:41:25.921Z,13.33
2018-08-29T10:44:29.706Z,18.10
2018-08-29T10:47:33.482Z,16.03
2018-08-29T10:50:37.240Z,17.57
2018-08-29T10:53:40.905Z,15.67
2018-08-29T10:56:44.645Z,13.07
2018-08-29T10:59:48.310Z,14.67
2018-08-29T11:02:52.259Z,12.57
2018-08-29T11:05:56.126Z,12.53
2018-08-29T11:08:59.841Z,12.67
2018-08-29T11:12:03.602Z,13.17
2018-08-29T11:15:07.332Z,12.93
2018-08-29T11:18:11.052Z,12.23
2018-08-29T11:21:14.777Z,10.83
2018-08-29T11:24:18.482Z,12.60
2018-08-29T11:27:22.145Z,11.73
2018-08-29T11:30:25.912Z,10.53
2018-08-29T11:33:29.661Z,13.23
2018-08-29T11:36:33.318Z,13.33
2018-08-29T11:39:37.035Z,13.87
2018-08-29T11:42:40.746Z,11.77
2018-08-29T11:45:44.287Z,11.07
2018-08-29T11:48:47.997Z,12.40
2018-08-29T11:51:51.813Z,13.53
2018-08-29T11:54:55.474Z,12.20
2018-08-29T11:57:59.177Z,11.90
2018-08-29T12:01:02.919Z,11.30
2018-08-29T12:04:06.583Z,15.00
2018-08-29T12:07:10.182Z,10.93
2018-08-29T12:10:13.858Z,14.60
2018-08-29T12:13:17.467Z,12.60
2018-08-29T12:16:21.126Z,14.53
2018-08-29T12:19:24.889Z,16.17
2018-08-29T12:22:28.632Z,13.30
2018-08-29T12:25:32.260Z,14.13
2018-08-29T12:28:36.093Z,11.40
2018-08-29T12:31:40.027Z,13.07
2018-08-29T12:34:45.934Z,11.63
2018-08-29T12:37:49.724Z,14.90
2018-08-29T12:40:56.535Z,16.77
2018-08-29T12:44:00.270Z,13.93
2018-08-29T12:47:04.067Z,13.37
2018-08-29T12:50:10.871Z,16.37
2018-08-29T12:53:14.502Z,14.90
2018-08-29T12:56:18.195Z,15.63
2018-08-29T12:59:21.857Z,12.70
2018-08-29T13:02:25.577Z,13.47
2018-08-29T13:05:29.291Z,14.53
2018-08-29T13:08:35.917Z,22.57
2018-08-29T13:11:39.756Z,11.17
2018-08-29T13:14:43.595Z,16.83
2018-08-29T13:17:47.142Z,12.53
2018-08-29T13:20:50.812Z,14.90
2018-08-29T13:23:54.412Z,13.07
2018-08-29T13:26:58.277Z,12.03
2018-08-29T13:30:01.989Z,11.80
2018-08-29T13:33:05.713Z,14.40
2018-08-29T13:36:09.377Z,18.40
2018-08-29T13:39:13.072Z,17.23
2018-08-29T13:42:16.838Z,19.33
2018-08-29T13:45:20.529Z,14.80
2018-08-29T13:48:24.232Z,14.27
2018-08-29T13:51:27.861Z,13.30
2018-08-29T13:54:31.589Z,11.83
2018-08-29T13:57:35.323Z,12.87
2018-08-29T14:00:39.055Z,11.30
2018-08-29T14:03:42.764Z,13.70
2018-08-29T14:06:46.439Z,12.70
2018-08-29T14:09:50.202Z,13.80
2018-08-29T14:12:53.870Z,11.13
2018-08-29T14:15:57.564Z,11.23
2018-08-29T14:19:01.301Z,13.80
2018-08-29T14:22:05.340Z,13.10
2018-08-29T14:25:09.522Z,14.37
2018-08-29T14:28:13.309Z,17.73
2018-08-29T14:31:18.516Z,20.03
2018-08-29T14:34:22.190Z,21.13
2018-08-29T14:37:25.904Z,16.13
2018-08-29T14:40:29.594Z,18.70
2018-08-29T14:43:33.277Z,22.83
2018-08-29T14:46:36.842Z,18.00
2018-08-29T14:49:40.571Z,17.43
2018-08-29T14:52:44.372Z,14.80
2018-08-29T14:55:48.250Z,14.00
2018-08-29T14:58:51.845Z,12.37
2018-08-29T15:02:07.750Z,15.20
2018-08-29T15:05:11.363Z,20.73
2018-08-29T15:08:15.028Z,22.73
2018-08-29T15:11:18.759Z,12.73
2018-08-29T15:14:22.729Z,19.67
2018-08-29T15:17:26.473Z,13.57
2018-08-29T15:20:30.333Z,21.23
2018-08-29T15:23:34.073Z,13.20
2018-08-29T15:26:38.021Z,16.20
2018-08-29T15:29:41.626Z,14.43
2018-08-29T15:32:45.296Z,10.83
2018-08-29T15:35:49.182Z,18.17
2018-08-29T15:38:53.941Z,15.40
2018-08-29T15:41:57.636Z,11.70
2018-08-29T15:45:01.313Z,10.97
2018-08-29T15:48:05.065Z,14.60
2018-08-29T15:51:09.182Z,17.30
2018-08-29T15:54:13.089Z,20.40
2018-08-29T15:57:16.825Z,26.07
2018-08-29T16:00:20.585Z,15.33
2018-08-29T16:03:24.209Z,16.37
2018-08-29T16:06:27.947Z,12.23
2018-08-29T16:09:32.466Z,12.20
2018-08-29T16:12:36.220Z,17.23
2018-08-29T16:15:40.039Z,13.73
2018-08-29T16:18:43.670Z,14.83
2018-08-29T16:21:47.375Z,13.50
2018-08-29T16:24:51.096Z,15.63
2018-08-29T16:27:55.065Z,22.23
2018-08-29T16:30:58.819Z,18.67
2018-08-29T16:34:02.589Z,13.30
2018-08-29T16:37:07.304Z,15.87
2018-08-29T16:40:12.328Z,15.67
2018-08-29T16:43:16.001Z,14.87
2018-08-29T16:46:19.651Z,17.47
2018-08-29T16:49:23.390Z,17.27
2018-08-29T16:52:27.198Z,16.97
2018-08-29T16:55:30.880Z,21.33
2018-08-29T16:58:34.763Z,18.83
2018-08-29T17:01:38.511Z,17.87
2018-08-29T17:04:42.269Z,19.40
2018-08-29T17:07:45.995Z,27.13
2018-08-29T17:10:50.849Z,18.60
2018-08-29T17:13:54.621Z,22.43
2018-08-29T17:16:58.321Z,16.90
2018-08-29T17:20:02.144Z,16.80
2018-08-29T17:23:06.262Z,15.53
2018-08-29T17:26:10.156Z,14.67
2018-08-29T17:29:14.032Z,18.73
2018-08-29T17:32:18.059Z,18.87
2018-08-29T17:35:22.168Z,11.43
2018-08-29T17:38:26.405Z,15.53
2018-08-29T17:41:30.241Z,14.43
2018-08-29T17:44:34.000Z,17.07
2018-08-29T17:47:37.925Z,18.60
2018-08-29T17:50:41.739Z,19.40
2018-08-29T17:53:45.590Z,17.53
2018-08-29T17:56:49.347Z,17.30
2018-08-29T17:59:53.084Z,17.27
2018-08-29T18:02:56.789Z,16.50
2018-08-29T18:06:00.506Z,15.77
2018-08-29T18:09:06.270Z,16.40
2018-08-29T18:12:10.190Z,16.17
2018-08-29T18:15:13.960Z,16.77
2018-08-29T18:18:17.822Z,17.33
2018-08-29T18:21:21.518Z,18.03
2018-08-29T18:24:25.408Z,18.70
2018-08-29T18:27:29.069Z,23.97
2018-08-29T18:30:33.136Z,21.57
2018-08-29T18:33:36.972Z,21.83
2018-08-29T18:36:40.781Z,23.93
2018-08-29T18:39:44.547Z,20.97
2018-08-29T18:42:48.486Z,26.00
2018-08-29T18:45:52.260Z,21.67
2018-08-29T18:48:55.964Z,20.73
2018-08-29T18:51:59.664Z,25.83
2018-08-29T18:55:03.495Z,25.50
2018-08-29T18:58:07.309Z,24.23
2018-08-29T19:01:11.074Z,19.33
2018-08-29T19:04:14.951Z,22.10
2018-08-29T19:07:18.786Z,22.17
2018-08-29T19:10:22.585Z,26.27
2018-08-29T19:13:26.362Z,23.47
2018-08-29T19:16:30.200Z,25.63
2018-08-29T19:19:34.016Z,22.00
2018-08-29T19:22:37.743Z,28.57
2018-08-29T19:25:42.005Z,22.10
2018-08-29T19:28:46.960Z,23.90
2018-08-29T19:31:51.212Z,23.73
2018-08-29T19:34:55.222Z,19.33
2018-08-29T19:37:59.000Z,21.73
2018-08-29T19:41:04.073Z,18.70
2018-08-29T19:44:08.110Z,22.07
2018-08-29T19:47:11.909Z,19.73
2018-08-29T19:50:15.565Z,24.90
2018-08-29T19:53:19.398Z,21.73
2018-08-29T19:56:23.109Z,21.10
2018-08-29T19:59:26.832Z,18.80
2018-08-29T20:02:30.560Z,26.03
2018-08-29T20:05:34.435Z,22.17
2018-08-29T20:08:38.081Z,25.93
2018-08-29T20:11:41.909Z,28.33
2018-08-29T20:14:47.815Z,24.60
2018-08-29T20:17:51.357Z,20.97
2018-08-29T20:20:55.133Z,24.20
2018-08-29T20:23:58.869Z,25.17
2018-08-29T20:27:02.955Z,33.07
2018-08-29T20:30:06.857Z,25.87
2018-08-29T20:33:10.805Z,26.00
2018-08-29T20:36:14.710Z,33.63
2018-08-29T20:39:18.639Z,32.00
2018-08-29T20:42:23.412Z,27.03
2018-08-29T20:45:27.036Z,34.20
2018-08-29T20:48:30.813Z,37.80
2018-08-29T20:51:34.585Z,37.80
2018-08-29T20:54:38.586Z,41.67
2018-08-29T20:57:43.541Z,46.50
2018-08-29T21:00:47.479Z,42.33
2018-08-29T21:03:51.152Z,41.20
2018-08-29T21:06:54.999Z,47.93
2018-08-29T21:09:58.856Z,49.17
2018-08-29T21:13:02.589Z,51.07
2018-08-29T21:16:06.439Z,52.50
2018-08-29T21:19:10.154Z,49.27
2018-08-29T21:22:13.758Z,47.87
2018-08-29T21:25:17.715Z,49.20
2018-08-29T21:28:32.103Z,48.53
2018-08-29T21:31:47.022Z,56.53
2018-08-29T21:35:34.003Z,50.60
2018-08-29T21:38:37.754Z,51.73
2018-08-29T21:41:42.338Z,48.03
2018-08-29T21:44:57.436Z,48.43
2018-08-29T21:48:43.068Z,45.53
2018-08-29T21:52:22.846Z,45.77
2018-08-29T21:56:50.081Z,44.90
2018-08-29T22:00:35.792Z,46.73
2018-08-29T22:03:57.375Z,43.57
2018-08-29T22:07:01.213Z,48.10
2018-08-29T22:10:05.215Z,51.73
2018-08-29T22:13:08.972Z,47.97
2018-08-29T22:16:12.739Z,52.70
2018-08-29T22:19:16.395Z,54.83
2018-08-29T22:22:20.211Z,50.30
2018-08-29T22:25:24.797Z,48.93
2018-08-29T22:28:28.385Z,59.87
2018-08-29T22:31:32.045Z,54.87
2018-08-29T22:34:35.715Z,54.07
2018-08-29T22:37:39.352Z,50.10
2018-08-29T22:40:43.066Z,49.70
2018-08-29T22:43:46.638Z,55.33
2018-08-29T22:46:50.330Z,56.17
2018-08-29T22:49:53.970Z,52.70
2018-08-29T22:52:57.662Z,60.90
2018-08-29T22:56:01.461Z,55.43
2018-08-29T22:59:05.256Z,58.47
2018-08-29T23:02:08.913Z,67.30
2018-08-29T23:05:12.516Z,54.80
2018-08-29T23:08:16.210Z,56.50
2018-08-29T23:11:19.893Z,61.90
2018-08-29T23:14:23.632Z,57.50
2018-08-29T23:17:27.370Z,63.20
2018-08-29T23:20:30.981Z,58.43
2018-08-29T23:23:34.599Z,69.83
2018-08-29T23:26:38.321Z,61.37
2018-08-29T23:29:41.961Z,60.03
2018-08-29T23:32:45.643Z,61.30
2018-08-29T23:35:49.276Z,55.00
2018-08-29T23:38:52.932Z,63.23
2018-08-29T23:41:56.623Z,72.03
2018-08-29T23:45:01.322Z,66.90
2018-08-29T23:48:05.313Z,63.47
2018-08-29T23:51:09.293Z,64.60
2018-08-29T23:54:12.941Z,76.23
2018-08-29T23:57:16.554Z,68.13
